sensor_id;sensor_type;location;lat;lon;timestamp;temperature;humidity
64869;DHT22;51349;52.424;10.840;2022-10-16T00:04:39;14.90;99.90
64869;DHT22;51349;52.424;10.840;2022-10-16T00:09:39;14.70;99.90
64869;DHT22;51349;52.424;10.840;2022-10-16T00:14:40;14.50;99.90
64869;DHT22;51349;52.424;10.840;2022-10-16T00:19:42;14.40;99.90
64869;DHT22;51349;52.424;10.840;2022-10-16T00:24:42;14.30;99.90
64869;DHT22;51349;52.424;10.840;2022-10-16T00:29:43;14.20;99.90
64869;DHT22;51349;52.424;10.840;2022-10-16T00:34:44;14.10;99.90
64869;DHT22;51349;52.424;10.840;2022-10-16T00:39:44;13.80;99.90
64869;DHT22;51349;52.424;10.840;2022-10-16T00:44:53;13.70;99.90
64869;DHT22;51349;52.424;10.840;2022-10-16T00:50:02;13.80;99.90
64869;DHT22;51349;52.424;10.840;2022-10-16T00:55:06;13.80;99.90
64869;DHT22;51349;52.424;10.840;2022-10-16T01:00:12;13.80;99.90
64869;DHT22;51349;52.424;10.840;2022-10-16T01:05:14;13.80;99.90
64869;DHT22;51349;52.424;10.840;2022-10-16T01:20:30;13.90;99.90
64869;DHT22;51349;52.424;10.840;2022-10-16T01:30:52;13.90;99.90
64869;DHT22;51349;52.424;10.840;2022-10-16T01:36:07;13.90;99.90
64869;DHT22;51349;52.424;10.840;2022-10-16T01:41:16;13.90;99.90
64869;DHT22;51349;52.424;10.840;2022-10-16T01:46:20;13.80;99.90
64869;DHT22;51349;52.424;10.840;2022-10-16T01:51:23;13.70;99.90
64869;DHT22;51349;52.424;10.840;2022-10-16T01:56:25;13.70;99.90
64869;DHT22;51349;52.424;10.840;2022-10-16T02:01:29;13.70;99.90
64869;DHT22;51349;52.424;10.840;2022-10-16T02:06:31;13.70;99.90
64869;DHT22;51349;52.424;10.840;2022-10-16T02:11:35;13.70;99.90
64869;DHT22;51349;52.424;10.840;2022-10-16T02:16:46;13.60;99.90
64869;DHT22;51349;52.424;10.840;2022-10-16T02:21:57;13.70;99.90
64869;DHT22;51349;52.424;10.840;2022-10-16T02:27:15;13.70;99.90
64869;DHT22;51349;52.424;10.840;2022-10-16T02:32:21;13.70;99.90
64869;DHT22;51349;52.424;10.840;2022-10-16T02:37:24;13.70;99.90
64869;DHT22;51349;52.424;10.840;2022-10-16T02:42:33;13.70;99.90
64869;DHT22;51349;52.424;10.840;2022-10-16T02:47:34;13.70;99.90
64869;DHT22;51349;52.424;10.840;2022-10-16T02:52:34;13.70;99.90
64869;DHT22;51349;52.424;10.840;2022-10-16T02:57:35;13.80;99.90
64869;DHT22;51349;52.424;10.840;2022-10-16T03:02:37;13.80;99.90
64869;DHT22;51349;52.424;10.840;2022-10-16T03:07:38;13.80;99.90
64869;DHT22;51349;52.424;10.840;2022-10-16T03:12:39;13.80;99.90
64869;DHT22;51349;52.424;10.840;2022-10-16T03:17:39;13.70;99.90
64869;DHT22;51349;52.424;10.840;2022-10-16T03:22:40;13.70;99.90
64869;DHT22;51349;52.424;10.840;2022-10-16T03:27:40;13.60;99.90
64869;DHT22;51349;52.424;10.840;2022-10-16T03:32:41;13.60;99.90
64869;DHT22;51349;52.424;10.840;2022-10-16T03:37:42;13.60;99.90
64869;DHT22;51349;52.424;10.840;2022-10-16T03:42:43;13.50;99.90
64869;DHT22;51349;52.424;10.840;2022-10-16T03:47:43;13.50;99.90
64869;DHT22;51349;52.424;10.840;2022-10-16T03:52:44;13.40;99.90
64869;DHT22;51349;52.424;10.840;2022-10-16T03:57:51;13.30;99.90
64869;DHT22;51349;52.424;10.840;2022-10-16T04:02:51;13.10;99.90
64869;DHT22;51349;52.424;10.840;2022-10-16T04:07:52;13.10;99.90
64869;DHT22;51349;52.424;10.840;2022-10-16T04:12:53;13.00;99.90
64869;DHT22;51349;52.424;10.840;2022-10-16T04:17:56;12.90;99.90
64869;DHT22;51349;52.424;10.840;2022-10-16T04:22:56;13.00;99.90
64869;DHT22;51349;52.424;10.840;2022-10-16T04:27:57;12.90;99.90
64869;DHT22;51349;52.424;10.840;2022-10-16T04:32:57;13.00;99.90
64869;DHT22;51349;52.424;10.840;2022-10-16T04:37:58;12.90;99.90
64869;DHT22;51349;52.424;10.840;2022-10-16T04:42:59;12.70;99.90
64869;DHT22;51349;52.424;10.840;2022-10-16T04:48:00;12.50;99.90
64869;DHT22;51349;52.424;10.840;2022-10-16T04:53:00;12.60;99.90
64869;DHT22;51349;52.424;10.840;2022-10-16T04:58:01;12.70;99.90
64869;DHT22;51349;52.424;10.840;2022-10-16T05:03:02;12.70;99.90
64869;DHT22;51349;52.424;10.840;2022-10-16T05:08:06;12.60;99.90
64869;DHT22;51349;52.424;10.840;2022-10-16T05:13:06;12.70;99.90
64869;DHT22;51349;52.424;10.840;2022-10-16T05:18:08;12.70;99.90
64869;DHT22;51349;52.424;10.840;2022-10-16T05:23:09;12.80;99.90
64869;DHT22;51349;52.424;10.840;2022-10-16T05:28:13;12.70;99.90
64869;DHT22;51349;52.424;10.840;2022-10-16T05:33:13;12.70;99.90
64869;DHT22;51349;52.424;10.840;2022-10-16T05:38:14;12.70;99.90
64869;DHT22;51349;52.424;10.840;2022-10-16T05:43:15;12.70;99.90
64869;DHT22;51349;52.424;10.840;2022-10-16T05:48:15;12.50;99.90
64869;DHT22;51349;52.424;10.840;2022-10-16T05:53:16;12.50;99.90
64869;DHT22;51349;52.424;10.840;2022-10-16T05:58:16;12.60;99.90
64869;DHT22;51349;52.424;10.840;2022-10-16T06:03:17;12.40;99.90
64869;DHT22;51349;52.424;10.840;2022-10-16T06:08:19;12.50;99.90
64869;DHT22;51349;52.424;10.840;2022-10-16T06:13:19;12.40;99.90
64869;DHT22;51349;52.424;10.840;2022-10-16T06:18:20;12.20;99.90
64869;DHT22;51349;52.424;10.840;2022-10-16T06:23:21;12.20;99.90
64869;DHT22;51349;52.424;10.840;2022-10-16T06:28:22;12.20;99.90
64869;DHT22;51349;52.424;10.840;2022-10-16T06:33:22;12.50;99.90
64869;DHT22;51349;52.424;10.840;2022-10-16T06:38:23;12.70;99.90
64869;DHT22;51349;52.424;10.840;2022-10-16T06:43:23;12.90;99.90
64869;DHT22;51349;52.424;10.840;2022-10-16T06:48:24;13.00;99.90
64869;DHT22;51349;52.424;10.840;2022-10-16T06:53:26;13.00;99.90
64869;DHT22;51349;52.424;10.840;2022-10-16T06:58:27;13.20;99.90
64869;DHT22;51349;52.424;10.840;2022-10-16T07:03:27;13.30;99.90
64869;DHT22;51349;52.424;10.840;2022-10-16T07:08:30;13.60;99.90
64869;DHT22;51349;52.424;10.840;2022-10-16T07:13:36;13.60;99.90
64869;DHT22;51349;52.424;10.840;2022-10-16T07:18:37;13.80;99.90
64869;DHT22;51349;52.424;10.840;2022-10-16T07:23:40;14.10;99.90
64869;DHT22;51349;52.424;10.840;2022-10-16T07:28:42;14.50;99.90
64869;DHT22;51349;52.424;10.840;2022-10-16T07:33:44;14.80;99.90
64869;DHT22;51349;52.424;10.840;2022-10-16T07:38:46;15.20;99.90
64869;DHT22;51349;52.424;10.840;2022-10-16T07:43:51;15.40;99.90
64869;DHT22;51349;52.424;10.840;2022-10-16T07:48:52;15.70;99.90
64869;DHT22;51349;52.424;10.840;2022-10-16T07:53:53;16.30;99.90
64869;DHT22;51349;52.424;10.840;2022-10-16T07:58:54;16.50;99.90
64869;DHT22;51349;52.424;10.840;2022-10-16T08:03:54;17.10;99.90
64869;DHT22;51349;52.424;10.840;2022-10-16T08:08:56;17.20;99.90
64869;DHT22;51349;52.424;10.840;2022-10-16T08:13:56;17.30;99.90
64869;DHT22;51349;52.424;10.840;2022-10-16T08:18:57;17.60;99.90
64869;DHT22;51349;52.424;10.840;2022-10-16T08:23:57;18.10;99.90
64869;DHT22;51349;52.424;10.840;2022-10-16T08:28:59;18.00;99.90
64869;DHT22;51349;52.424;10.840;2022-10-16T08:34:00;18.70;99.90
64869;DHT22;51349;52.424;10.840;2022-10-16T08:39:00;18.10;99.90
64869;DHT22;51349;52.424;10.840;2022-10-16T08:44:39;19.00;99.90
64869;DHT22;51349;52.424;10.840;2022-10-16T08:50:00;18.80;99.90
64869;DHT22;51349;52.424;10.840;2022-10-16T08:55:04;19.10;99.90
64869;DHT22;51349;52.424;10.840;2022-10-16T09:00:14;18.60;99.90
64869;DHT22;51349;52.424;10.840;2022-10-16T09:05:17;17.90;99.90
64869;DHT22;51349;52.424;10.840;2022-10-16T09:10:37;18.00;99.90
64869;DHT22;51349;52.424;10.840;2022-10-16T09:21:06;18.40;99.90
64869;DHT22;51349;52.424;10.840;2022-10-16T09:26:13;20.00;99.90
64869;DHT22;51349;52.424;10.840;2022-10-16T09:31:20;19.50;99.90
64869;DHT22;51349;52.424;10.840;2022-10-16T09:36:23;20.50;99.90
64869;DHT22;51349;52.424;10.840;2022-10-16T09:41:25;19.40;99.90
64869;DHT22;51349;52.424;10.840;2022-10-16T09:46:32;18.50;99.90
64869;DHT22;51349;52.424;10.840;2022-10-16T09:51:35;18.30;99.90
64869;DHT22;51349;52.424;10.840;2022-10-16T09:56:37;18.30;99.90
64869;DHT22;51349;52.424;10.840;2022-10-16T10:01:52;18.70;99.90
64869;DHT22;51349;52.424;10.840;2022-10-16T10:06:55;19.10;99.90
64869;DHT22;51349;52.424;10.840;2022-10-16T10:11:57;20.30;99.90
64869;DHT22;51349;52.424;10.840;2022-10-16T10:27:43;20.80;99.90
64869;DHT22;51349;52.424;10.840;2022-10-16T10:38:24;21.50;99.90
64869;DHT22;51349;52.424;10.840;2022-10-16T10:49:03;22.40;99.90
64869;DHT22;51349;52.424;10.840;2022-10-16T11:05:30;21.80;99.90
64869;DHT22;51349;52.424;10.840;2022-10-16T11:10:48;20.30;99.90
64869;DHT22;51349;52.424;10.840;2022-10-16T11:15:52;20.30;99.90
64869;DHT22;51349;52.424;10.840;2022-10-16T11:21:02;21.00;99.90
64869;DHT22;51349;52.424;10.840;2022-10-16T11:26:09;21.00;99.90
64869;DHT22;51349;52.424;10.840;2022-10-16T11:36:25;21.60;99.90
64869;DHT22;51349;52.424;10.840;2022-10-16T11:46:31;21.40;99.90
64869;DHT22;51349;52.424;10.840;2022-10-16T11:52:24;21.30;99.90
64869;DHT22;51349;52.424;10.840;2022-10-16T11:57:33;21.20;99.90
64869;DHT22;51349;52.424;10.840;2022-10-16T12:02:54;19.70;99.90
64869;DHT22;51349;52.424;10.840;2022-10-16T12:13:28;20.00;99.90
64869;DHT22;51349;52.424;10.840;2022-10-16T12:18:26;20.20;99.90
64869;DHT22;51349;52.424;10.840;2022-10-16T12:23:26;20.30;99.90
64869;DHT22;51349;52.424;10.840;2022-10-16T12:28:29;20.40;99.90
64869;DHT22;51349;52.424;10.840;2022-10-16T12:33:36;20.20;99.90
64869;DHT22;51349;52.424;10.840;2022-10-16T12:38:49;20.60;99.90
64869;DHT22;51349;52.424;10.840;2022-10-16T12:43:50;20.20;99.90
64869;DHT22;51349;52.424;10.840;2022-10-16T12:48:51;20.50;99.90
64869;DHT22;51349;52.424;10.840;2022-10-16T12:59:43;19.90;99.90
64869;DHT22;51349;52.424;10.840;2022-10-16T13:10:22;19.30;99.90
64869;DHT22;51349;52.424;10.840;2022-10-16T13:26:09;19.40;99.90
64869;DHT22;51349;52.424;10.840;2022-10-16T13:31:17;19.20;99.90
64869;DHT22;51349;52.424;10.840;2022-10-16T13:36:27;19.20;99.90
64869;DHT22;51349;52.424;10.840;2022-10-16T13:41:28;19.30;99.90
64869;DHT22;51349;52.424;10.840;2022-10-16T13:46:29;19.50;99.90
64869;DHT22;51349;52.424;10.840;2022-10-16T13:51:34;19.20;99.90
64869;DHT22;51349;52.424;10.840;2022-10-16T13:56:35;19.10;99.90
64869;DHT22;51349;52.424;10.840;2022-10-16T14:01:41;18.90;99.90
64869;DHT22;51349;52.424;10.840;2022-10-16T14:06:45;18.70;99.90
64869;DHT22;51349;52.424;10.840;2022-10-16T14:11:50;18.70;99.90
64869;DHT22;51349;52.424;10.840;2022-10-16T14:16:54;18.50;99.90
64869;DHT22;51349;52.424;10.840;2022-10-16T14:21:56;18.60;99.90
64869;DHT22;51349;52.424;10.840;2022-10-16T14:26:57;18.90;99.90
64869;DHT22;51349;52.424;10.840;2022-10-16T14:32:00;18.90;99.90
64869;DHT22;51349;52.424;10.840;2022-10-16T14:42:17;19.10;99.90
64869;DHT22;51349;52.424;10.840;2022-10-16T14:47:22;19.00;99.90
64869;DHT22;51349;52.424;10.840;2022-10-16T14:52:26;19.40;99.90
64869;DHT22;51349;52.424;10.840;2022-10-16T14:57:30;19.30;99.90
64869;DHT22;51349;52.424;10.840;2022-10-16T15:02:35;19.00;99.90
64869;DHT22;51349;52.424;10.840;2022-10-16T15:07:37;18.80;99.90
64869;DHT22;51349;52.424;10.840;2022-10-16T15:12:37;18.80;99.90
64869;DHT22;51349;52.424;10.840;2022-10-16T15:17:38;18.60;99.90
64869;DHT22;51349;52.424;10.840;2022-10-16T15:22:38;18.50;99.90
64869;DHT22;51349;52.424;10.840;2022-10-16T15:27:39;18.10;99.90
64869;DHT22;51349;52.424;10.840;2022-10-16T15:32:40;18.00;99.90
64869;DHT22;51349;52.424;10.840;2022-10-16T15:37:41;17.80;99.90
64869;DHT22;51349;52.424;10.840;2022-10-16T15:42:41;17.70;99.90
64869;DHT22;51349;52.424;10.840;2022-10-16T15:47:42;17.50;99.90
64869;DHT22;51349;52.424;10.840;2022-10-16T15:52:43;17.40;99.90
64869;DHT22;51349;52.424;10.840;2022-10-16T15:57:45;17.10;99.90
64869;DHT22;51349;52.424;10.840;2022-10-16T16:02:51;16.90;99.90
64869;DHT22;51349;52.424;10.840;2022-10-16T16:07:55;16.70;99.90
64869;DHT22;51349;52.424;10.840;2022-10-16T16:12:56;16.30;99.90
64869;DHT22;51349;52.424;10.840;2022-10-16T16:17:57;16.10;99.90
64869;DHT22;51349;52.424;10.840;2022-10-16T16:22:58;15.70;99.90
64869;DHT22;51349;52.424;10.840;2022-10-16T16:27:58;15.20;99.90
64869;DHT22;51349;52.424;10.840;2022-10-16T16:32:59;15.30;99.90
64869;DHT22;51349;52.424;10.840;2022-10-16T16:38:00;15.10;99.90
64869;DHT22;51349;52.424;10.840;2022-10-16T16:43:00;14.90;99.90
64869;DHT22;51349;52.424;10.840;2022-10-16T16:48:01;14.80;99.90
64869;DHT22;51349;52.424;10.840;2022-10-16T16:53:02;15.00;99.90
64869;DHT22;51349;52.424;10.840;2022-10-16T16:58:02;14.90;99.90
64869;DHT22;51349;52.424;10.840;2022-10-16T17:03:03;15.00;99.90
64869;DHT22;51349;52.424;10.840;2022-10-16T17:08:06;15.20;99.90
64869;DHT22;51349;52.424;10.840;2022-10-16T17:13:07;15.10;99.90
64869;DHT22;51349;52.424;10.840;2022-10-16T17:18:08;15.00;99.90
64869;DHT22;51349;52.424;10.840;2022-10-16T17:23:09;14.60;99.90
64869;DHT22;51349;52.424;10.840;2022-10-16T17:28:12;14.40;99.90
64869;DHT22;51349;52.424;10.840;2022-10-16T17:33:13;14.20;99.90
64869;DHT22;51349;52.424;10.840;2022-10-16T17:38:14;14.00;99.90
64869;DHT22;51349;52.424;10.840;2022-10-16T17:43:16;13.90;99.90
64869;DHT22;51349;52.424;10.840;2022-10-16T17:48:16;13.90;99.90
64869;DHT22;51349;52.424;10.840;2022-10-16T17:53:17;13.90;99.90
64869;DHT22;51349;52.424;10.840;2022-10-16T17:58:18;13.90;99.90
64869;DHT22;51349;52.424;10.840;2022-10-16T18:03:18;14.00;99.90
64869;DHT22;51349;52.424;10.840;2022-10-16T18:08:19;13.80;99.90
64869;DHT22;51349;52.424;10.840;2022-10-16T18:13:19;13.70;99.90
64869;DHT22;51349;52.424;10.840;2022-10-16T18:18:20;13.80;99.90
64869;DHT22;51349;52.424;10.840;2022-10-16T18:23:20;13.70;99.90
64869;DHT22;51349;52.424;10.840;2022-10-16T18:28:24;13.80;99.90
64869;DHT22;51349;52.424;10.840;2022-10-16T18:33:26;13.80;99.90
64869;DHT22;51349;52.424;10.840;2022-10-16T18:38:28;13.70;99.90
64869;DHT22;51349;52.424;10.840;2022-10-16T18:43:29;13.60;99.90
64869;DHT22;51349;52.424;10.840;2022-10-16T18:48:30;13.60;99.90
64869;DHT22;51349;52.424;10.840;2022-10-16T18:53:31;13.30;99.90
64869;DHT22;51349;52.424;10.840;2022-10-16T18:58:35;13.40;99.90
64869;DHT22;51349;52.424;10.840;2022-10-16T19:03:38;13.40;99.90
64869;DHT22;51349;52.424;10.840;2022-10-16T19:08:39;13.30;99.90
64869;DHT22;51349;52.424;10.840;2022-10-16T19:13:43;13.50;99.90
64869;DHT22;51349;52.424;10.840;2022-10-16T19:18:44;13.50;99.90
64869;DHT22;51349;52.424;10.840;2022-10-16T19:23:45;13.40;99.90
64869;DHT22;51349;52.424;10.840;2022-10-16T19:28:46;13.50;99.90
64869;DHT22;51349;52.424;10.840;2022-10-16T19:33:54;13.40;99.90
64869;DHT22;51349;52.424;10.840;2022-10-16T19:38:58;13.20;99.90
64869;DHT22;51349;52.424;10.840;2022-10-16T19:44:00;13.30;99.90
64869;DHT22;51349;52.424;10.840;2022-10-16T19:49:04;13.30;99.90
64869;DHT22;51349;52.424;10.840;2022-10-16T19:54:11;13.20;99.90
64869;DHT22;51349;52.424;10.840;2022-10-16T19:59:12;13.20;99.90
64869;DHT22;51349;52.424;10.840;2022-10-16T20:04:15;13.10;99.90
64869;DHT22;51349;52.424;10.840;2022-10-16T20:09:16;13.00;99.90
64869;DHT22;51349;52.424;10.840;2022-10-16T20:14:17;12.80;99.90
64869;DHT22;51349;52.424;10.840;2022-10-16T20:19:18;12.90;99.90
64869;DHT22;51349;52.424;10.840;2022-10-16T20:24:18;12.90;99.90
64869;DHT22;51349;52.424;10.840;2022-10-16T20:29:19;12.90;99.90
64869;DHT22;51349;52.424;10.840;2022-10-16T20:34:20;13.00;99.90
64869;DHT22;51349;52.424;10.840;2022-10-16T20:39:20;12.90;99.90
64869;DHT22;51349;52.424;10.840;2022-10-16T20:44:21;12.90;99.90
64869;DHT22;51349;52.424;10.840;2022-10-16T20:49:21;12.80;99.90
64869;DHT22;51349;52.424;10.840;2022-10-16T20:54:22;12.80;99.90
64869;DHT22;51349;52.424;10.840;2022-10-16T20:59:23;12.80;99.90
64869;DHT22;51349;52.424;10.840;2022-10-16T21:04:23;12.80;99.90
64869;DHT22;51349;52.424;10.840;2022-10-16T21:09:24;12.70;99.90
64869;DHT22;51349;52.424;10.840;2022-10-16T21:14:24;12.90;99.90
64869;DHT22;51349;52.424;10.840;2022-10-16T21:19:28;12.90;99.90
64869;DHT22;51349;52.424;10.840;2022-10-16T21:24:28;12.80;99.90
64869;DHT22;51349;52.424;10.840;2022-10-16T21:29:29;12.80;99.90
64869;DHT22;51349;52.424;10.840;2022-10-16T21:34:30;12.90;99.90
64869;DHT22;51349;52.424;10.840;2022-10-16T21:39:30;12.90;99.90
64869;DHT22;51349;52.424;10.840;2022-10-16T21:44:31;13.00;99.90
64869;DHT22;51349;52.424;10.840;2022-10-16T21:49:32;12.90;99.90
64869;DHT22;51349;52.424;10.840;2022-10-16T21:54:32;12.90;99.90
64869;DHT22;51349;52.424;10.840;2022-10-16T21:59:33;13.00;99.90
64869;DHT22;51349;52.424;10.840;2022-10-16T22:04:33;13.00;99.90
64869;DHT22;51349;52.424;10.840;2022-10-16T22:09:34;13.00;99.90
64869;DHT22;51349;52.424;10.840;2022-10-16T22:14:35;13.10;99.90
64869;DHT22;51349;52.424;10.840;2022-10-16T22:19:35;13.10;99.90
64869;DHT22;51349;52.424;10.840;2022-10-16T22:24:36;13.10;99.90
64869;DHT22;51349;52.424;10.840;2022-10-16T22:29:37;13.20;99.90
64869;DHT22;51349;52.424;10.840;2022-10-16T22:34:37;13.00;99.90
64869;DHT22;51349;52.424;10.840;2022-10-16T22:39:38;13.20;99.90
64869;DHT22;51349;52.424;10.840;2022-10-16T22:44:38;13.20;99.90
64869;DHT22;51349;52.424;10.840;2022-10-16T22:49:39;13.20;99.90
64869;DHT22;51349;52.424;10.840;2022-10-16T22:54:39;13.30;99.90
64869;DHT22;51349;52.424;10.840;2022-10-16T22:59:40;13.30;99.90
64869;DHT22;51349;52.424;10.840;2022-10-16T23:04:41;13.30;99.90
64869;DHT22;51349;52.424;10.840;2022-10-16T23:09:41;13.30;99.90
64869;DHT22;51349;52.424;10.840;2022-10-16T23:14:42;13.40;99.90
64869;DHT22;51349;52.424;10.840;2022-10-16T23:19:43;13.50;99.90
64869;DHT22;51349;52.424;10.840;2022-10-16T23:24:43;13.50;99.90
64869;DHT22;51349;52.424;10.840;2022-10-16T23:29:44;13.50;99.90
64869;DHT22;51349;52.424;10.840;2022-10-16T23:34:45;13.50;99.90
64869;DHT22;51349;52.424;10.840;2022-10-16T23:39:46;13.50;99.90
64869;DHT22;51349;52.424;10.840;2022-10-16T23:44:47;13.50;99.90
64869;DHT22;51349;52.424;10.840;2022-10-16T23:49:47;13.40;99.90
64869;DHT22;51349;52.424;10.840;2022-10-16T23:54:48;13.40;99.90
64869;DHT22;51349;52.424;10.840;2022-10-16T23:59:51;13.20;99.90
